Cub Run, KY (42729)

4:30 AM CDT on April 19, 2018 (GMT -0500)
Barton Run Lodge & Farm - Nolin Lake | | Change Station
Active Advisory: Frost Advisory

Elev 540 ft 37.35 °N, 86.12 °W | Updated 4 seconds ago

Overcast
Overcast
41.7 °F
Feels Like 42 °F
N
1.7
Wind Variable Wind from North
Gusts 5.8 mph

Today
High -- | Low -- °F
--% Chance of Precip.
Yesterday
High -- | Low -- °F
Precip. -- in
Pressure 30.05 in
Visibility 10.0 miles
Clouds Overcast 3500 ft
Windchill 42 °F
Dew Point 24 °F
Humidity 50%
Rainfall 0.00 in
Snow Depth Not available.
6:04 AM 7:23 PM
Waxing Crescent, 14% visible
METAR KGLW 190910Z AUTO 31011G18KT 10SM OVC035 06/M01 A3005 RMK AO2 T00571010
Pressure 30.05 in
Visibility 10.0 miles
Clouds Overcast 3500 ft
Windchill 42 °F
Dew Point 24 °F
Humidity 50%
Rainfall 0.00 in
Snow Depth Not available.
6:04 AM 7:23 PM
Waxing Crescent, 14% visible
METAR KGLW 190910Z AUTO 31011G18KT 10SM OVC035 06/M01 A3005 RMK AO2 T00571010

Get Your Daily Forecast Email!

Thanks for signing up!

Be on the lookout for a verification email in your inbox.

You'll start receiving severe weather alerts in your inbox..

×

10-Day Weather Forecast

Almanac

Astronomy

Apr. 19, 2018 Rise Set
Actual Time
Civil Twilight
Nautical Twilight
Astronomical Twilight
Moon
Length of Visible Light
Length of Day
Tomorrow will be .
, % of the Moon is Illuminated

Today's Extremes

State Highs State Lows

Community

WunderPhotos

Category 6

Welcome to Category 6. This is the collective home for Weather Underground's featured writeups by Dr. Jeff Masters (right), Bob Henson (left), Chris Burt, and other regular contributors.

Nearby

Air Quality

  Air Quality AQ Index Pollutant
Not available.

Snow Depth

Station Depth Elevation

Earthquake Activity

City Distance Mag. Time & Date
Minimum magnitude displayed is 2.5.

Coastal Water Temperatures

Place Temperature

Stations

Nearby Weather Stations

Station Location Temp. Windchill Dew Point Humidity Wind Precip. Elev Updated Type
                   

Watches & Warnings

Frost Advisory
Issued: 2:12 AM CDT Apr. 19, 2018 – National Weather Service

... Frost advisory in effect from 1 am EDT /midnight CDT/ to 10 am
EDT /9 am CDT/ Friday...

The National Weather Service in Louisville has issued a frost
advisory, which is in effect from 1 am EDT /midnight CDT/ to
10 am EDT /9 am CDT/ Friday.

* Temperature... temperatures in the low to mid 30s later tonight.

* Impacts... frost will damage or kill sensitive vegetation.

Precautionary/preparedness actions...

A frost advisory means that widespread frost is expected.
Sensitive outdoor plants may be killed if left uncovered.



Bjs